Priwall — V2OX8 — position and weather

sailwx.info

Track history (hours):
 
Tides and Currents Weather Stations Pressure Air Temp Water Temp Dewpoint Dewpoint Depression Visibility Wind Speed Wind Dir Waves Ship Positions

Priwall

Last reported at 2016-Nov-24 23:06 UTC. Time now 2016-Dec-07 12:35 UTC.
Position N 37°39' E 023°43'.
Warning: this ship's position is 12 days out of date.

Length 88 m; draft 4.1 m.

Type: Ship. MMSI: 304739000.

Date/timePositionNaut miles runAvg speedWind from/ knotsBaromVisibWave heightAir tempDewpointWater temp
2016-Nov-24 23:06N 37°39' E 023°43'4 7.5
2016-Nov-24 22:33N 37°43' E 023°40'8 7.6
2016-Nov-24 21:34N 37°49' E 023°36'8 7.7
2016-Nov-24 20:34N 37°51' E 023°26'8 8.0
2016-Nov-24 19:33N 37°52' E 023°16'8 7.6
2016-Nov-24 18:34N 37°53' E 023°06'3 2.2
2016-Nov-24 17:15N 37°55' E 023°03'0 0.0
2016-Nov-24 16:31N 37°55' E 023°03'0 0.0
2016-Nov-24 15:31N 37°55' E 023°03'0 0.0
2016-Nov-24 14:31N 37°55' E 023°03'0 0.0
2016-Nov-24 13:25N 37°55' E 023°03'0 0.0
2016-Nov-24 12:31N 37°55' E 023°03'0 0.0
2016-Nov-24 11:31N 37°55' E 023°03'0 0.0
2016-Nov-24 10:19N 37°55' E 023°03'0 0.0
2016-Nov-24 08:25N 37°55' E 023°03'0 0.0
2016-Nov-24 06:31N 37°55' E 023°03'0 0.2
2016-Nov-24 05:33N 37°55' E 023°03'4 3.8
2016-Nov-24 04:33N 37°53' E 023°08'8 7.5
2016-Nov-24 03:33N 37°52' E 023°17'8 7.9
2016-Nov-24 02:34N 37°51' E 023°27'8 7.7
2016-Nov-24 01:33N 37°51' E 023°37'7 6.6
2016-Nov-24 00:33N 37°46' E 023°42'7 6.8
2016-Nov-23 23:33N 37°40' E 023°46'  
2016-Nov-21 00:33N 36°23' E 014°33'16 8.1
2016-Nov-20 22:33N 36°28' E 014°13'8 8.5
2016-Nov-20 21:33N 36°31' E 014°03'  
2016-Nov-16 08:33N 35°60' W 005°15'8 8.2
2016-Nov-16 07:33N 35°58' W 005°25'1310.3
2016-Nov-16 06:20N 35°54' W 005°40'  
Track history (hours):
 
Tides and Currents Weather Stations Pressure Air Temp Water Temp Dewpoint Dewpoint Depression Visibility Wind Speed Wind Dir Waves Ship Positions

Priwall

Last reported at 2016-Nov-24 23:06 UTC. Time now 2016-Dec-07 12:35 UTC.
Position N 37°39' E 023°43'.
Warning: this ship's position is 12 days out of date.

Length 88 m; draft 4.1 m.

Type: Ship. MMSI: 304739000.

Date/timePositionNaut miles runAvg speedWind from/ knotsBaromVisibWave heightAir tempDewpointWater temp
2016-Nov-24 23:06N 37°39' E 023°43'4 7.5
2016-Nov-24 22:33N 37°43' E 023°40'8 7.6
2016-Nov-24 21:34N 37°49' E 023°36'8 7.7
2016-Nov-24 20:34N 37°51' E 023°26'8 8.0
2016-Nov-24 19:33N 37°52' E 023°16'8 7.6
2016-Nov-24 18:34N 37°53' E 023°06'3 2.2
2016-Nov-24 17:15N 37°55' E 023°03'0 0.0
2016-Nov-24 16:31N 37°55' E 023°03'0 0.0
2016-Nov-24 15:31N 37°55' E 023°03'0 0.0
2016-Nov-24 14:31N 37°55' E 023°03'0 0.0
2016-Nov-24 13:25N 37°55' E 023°03'0 0.0
2016-Nov-24 12:31N 37°55' E 023°03'0 0.0
2016-Nov-24 11:31N 37°55' E 023°03'0 0.0
2016-Nov-24 10:19N 37°55' E 023°03'0 0.0
2016-Nov-24 08:25N 37°55' E 023°03'0 0.0
2016-Nov-24 06:31N 37°55' E 023°03'0 0.2
2016-Nov-24 05:33N 37°55' E 023°03'4 3.8
2016-Nov-24 04:33N 37°53' E 023°08'8 7.5
2016-Nov-24 03:33N 37°52' E 023°17'8 7.9
2016-Nov-24 02:34N 37°51' E 023°27'8 7.7
2016-Nov-24 01:33N 37°51' E 023°37'7 6.6
2016-Nov-24 00:33N 37°46' E 023°42'7 6.8
2016-Nov-23 23:33N 37°40' E 023°46'  
2016-Nov-21 00:33N 36°23' E 014°33'16 8.1
2016-Nov-20 22:33N 36°28' E 014°13'8 8.5
2016-Nov-20 21:33N 36°31' E 014°03'  
2016-Nov-16 08:33N 35°60' W 005°15'8 8.2
2016-Nov-16 07:33N 35°58' W 005°25'1310.3
2016-Nov-16 06:20N 35°54' W 005°40'  

Dump ship's entire track history